sensor_id;sensor_type;location;lat;lon;timestamp;P1;durP1;ratioP1;P2;durP2;ratioP2
2019;SDS011;1014;51.960;8.542;2024-03-02T00:00:48;24.63;;;22.70;;
2019;SDS011;1014;51.960;8.542;2024-03-02T00:03:15;25.23;;;23.23;;
2019;SDS011;1014;51.960;8.542;2024-03-02T00:05:43;25.50;;;23.30;;
2019;SDS011;1014;51.960;8.542;2024-03-02T00:08:11;25.05;;;22.95;;
2019;SDS011;1014;51.960;8.542;2024-03-02T00:10:40;26.20;;;24.10;;
2019;SDS011;1014;51.960;8.542;2024-03-02T00:13:08;26.23;;;24.10;;
2019;SDS011;1014;51.960;8.542;2024-03-02T00:15:41;25.25;;;23.30;;
2019;SDS011;1014;51.960;8.542;2024-03-02T00:18:10;26.58;;;24.15;;
2019;SDS011;1014;51.960;8.542;2024-03-02T00:20:37;22.13;;;20.50;;
2019;SDS011;1014;51.960;8.542;2024-03-02T00:23:05;25.00;;;23.05;;
2019;SDS011;1014;51.960;8.542;2024-03-02T00:25:39;25.67;;;23.65;;
2019;SDS011;1014;51.960;8.542;2024-03-02T00:28:12;27.90;;;25.53;;
2019;SDS011;1014;51.960;8.542;2024-03-02T00:30:45;25.45;;;23.40;;
2019;SDS011;1014;51.960;8.542;2024-03-02T00:33:17;25.42;;;23.33;;
2019;SDS011;1014;51.960;8.542;2024-03-02T00:35:44;24.92;;;22.75;;
2019;SDS011;1014;51.960;8.542;2024-03-02T00:38:11;26.67;;;24.50;;
2019;SDS011;1014;51.960;8.542;2024-03-02T00:40:40;25.27;;;23.03;;
2019;SDS011;1014;51.960;8.542;2024-03-02T00:43:09;25.45;;;23.45;;
2019;SDS011;1014;51.960;8.542;2024-03-02T00:45:40;25.15;;;23.15;;
2019;SDS011;1014;51.960;8.542;2024-03-02T00:48:07;24.58;;;22.65;;
2019;SDS011;1014;51.960;8.542;2024-03-02T00:50:34;24.02;;;22.13;;
2019;SDS011;1014;51.960;8.542;2024-03-02T00:53:01;23.90;;;22.10;;
2019;SDS011;1014;51.960;8.542;2024-03-02T00:55:29;25.02;;;22.92;;
2019;SDS011;1014;51.960;8.542;2024-03-02T00:57:56;24.10;;;22.07;;
2019;SDS011;1014;51.960;8.542;2024-03-02T01:00:23;23.50;;;21.50;;
2019;SDS011;1014;51.960;8.542;2024-03-02T01:02:51;24.67;;;22.77;;
2019;SDS011;1014;51.960;8.542;2024-03-02T01:05:18;24.65;;;22.65;;
2019;SDS011;1014;51.960;8.542;2024-03-02T01:07:45;25.10;;;23.00;;
2019;SDS011;1014;51.960;8.542;2024-03-02T01:10:12;23.17;;;21.52;;
2019;SDS011;1014;51.960;8.542;2024-03-02T01:12:39;23.50;;;21.80;;
2019;SDS011;1014;51.960;8.542;2024-03-02T01:15:07;25.20;;;23.30;;
2019;SDS011;1014;51.960;8.542;2024-03-02T01:17:34;25.05;;;23.25;;
2019;SDS011;1014;51.960;8.542;2024-03-02T01:20:02;24.07;;;22.27;;
2019;SDS011;1014;51.960;8.542;2024-03-02T01:22:29;24.08;;;22.23;;
2019;SDS011;1014;51.960;8.542;2024-03-02T01:24:56;24.80;;;22.90;;
2019;SDS011;1014;51.960;8.542;2024-03-02T01:27:23;25.65;;;23.65;;
2019;SDS011;1014;51.960;8.542;2024-03-02T01:29:50;23.45;;;21.65;;
2019;SDS011;1014;51.960;8.542;2024-03-02T01:32:17;22.80;;;20.97;;
2019;SDS011;1014;51.960;8.542;2024-03-02T01:34:46;24.52;;;22.65;;
2019;SDS011;1014;51.960;8.542;2024-03-02T01:37:15;22.00;;;20.50;;
2019;SDS011;1014;51.960;8.542;2024-03-02T01:39:41;24.45;;;22.30;;
2019;SDS011;1014;51.960;8.542;2024-03-02T01:42:07;24.17;;;22.27;;
2019;SDS011;1014;51.960;8.542;2024-03-02T01:44:35;25.23;;;23.35;;
2019;SDS011;1014;51.960;8.542;2024-03-02T01:47:02;24.27;;;22.27;;
2019;SDS011;1014;51.960;8.542;2024-03-02T01:49:29;25.93;;;23.73;;
2019;SDS011;1014;51.960;8.542;2024-03-02T01:51:57;24.58;;;22.73;;
2019;SDS011;1014;51.960;8.542;2024-03-02T01:54:28;23.92;;;22.23;;
2019;SDS011;1014;51.960;8.542;2024-03-02T01:56:55;25.90;;;23.60;;
2019;SDS011;1014;51.960;8.542;2024-03-02T01:59:22;24.55;;;22.55;;
2019;SDS011;1014;51.960;8.542;2024-03-02T02:01:49;25.50;;;23.33;;
2019;SDS011;1014;51.960;8.542;2024-03-02T02:04:16;25.10;;;23.08;;
2019;SDS011;1014;51.960;8.542;2024-03-02T02:06:46;23.40;;;21.50;;
2019;SDS011;1014;51.960;8.542;2024-03-02T02:09:13;24.85;;;22.95;;
2019;SDS011;1014;51.960;8.542;2024-03-02T02:11:42;25.13;;;22.92;;
2019;SDS011;1014;51.960;8.542;2024-03-02T02:14:15;22.60;;;20.80;;
2019;SDS011;1014;51.960;8.542;2024-03-02T02:16:42;24.07;;;22.17;;
2019;SDS011;1014;51.960;8.542;2024-03-02T02:19:09;21.90;;;20.27;;
2019;SDS011;1014;51.960;8.542;2024-03-02T02:21:37;24.67;;;22.58;;
2019;SDS011;1014;51.960;8.542;2024-03-02T02:24:04;24.35;;;22.38;;
2019;SDS011;1014;51.960;8.542;2024-03-02T02:26:31;24.77;;;22.97;;
2019;SDS011;1014;51.960;8.542;2024-03-02T02:28:58;23.88;;;22.15;;
2019;SDS011;1014;51.960;8.542;2024-03-02T02:31:25;22.08;;;20.40;;
2019;SDS011;1014;51.960;8.542;2024-03-02T02:33:52;23.63;;;21.80;;
2019;SDS011;1014;51.960;8.542;2024-03-02T02:36:20;25.48;;;23.40;;
2019;SDS011;1014;51.960;8.542;2024-03-02T02:38:48;23.90;;;22.10;;
2019;SDS011;1014;51.960;8.542;2024-03-02T02:41:15;25.10;;;23.20;;
2019;SDS011;1014;51.960;8.542;2024-03-02T02:43:42;24.13;;;22.40;;
2019;SDS011;1014;51.960;8.542;2024-03-02T02:46:09;22.77;;;21.07;;
2019;SDS011;1014;51.960;8.542;2024-03-02T02:48:36;23.98;;;22.13;;
2019;SDS011;1014;51.960;8.542;2024-03-02T02:51:03;25.80;;;23.67;;
2019;SDS011;1014;51.960;8.542;2024-03-02T02:53:31;23.67;;;22.03;;
2019;SDS011;1014;51.960;8.542;2024-03-02T02:55:59;22.93;;;21.33;;
2019;SDS011;1014;51.960;8.542;2024-03-02T02:58:26;26.23;;;24.05;;
2019;SDS011;1014;51.960;8.542;2024-03-02T03:00:53;25.30;;;23.23;;
2019;SDS011;1014;51.960;8.542;2024-03-02T03:03:21;25.73;;;23.83;;
2019;SDS011;1014;51.960;8.542;2024-03-02T03:05:48;25.60;;;23.60;;
2019;SDS011;1014;51.960;8.542;2024-03-02T03:08:15;25.00;;;23.10;;
2019;SDS011;1014;51.960;8.542;2024-03-02T03:10:42;25.75;;;23.55;;
2019;SDS011;1014;51.960;8.542;2024-03-02T03:13:11;25.13;;;23.02;;
2019;SDS011;1014;51.960;8.542;2024-03-02T03:15:38;25.50;;;23.45;;
2019;SDS011;1014;51.960;8.542;2024-03-02T03:18:05;27.70;;;25.40;;
2019;SDS011;1014;51.960;8.542;2024-03-02T03:20:33;26.48;;;24.25;;
2019;SDS011;1014;51.960;8.542;2024-03-02T03:23:00;24.20;;;22.10;;
2019;SDS011;1014;51.960;8.542;2024-03-02T03:25:29;27.92;;;25.55;;
2019;SDS011;1014;51.960;8.542;2024-03-02T03:27:56;25.57;;;23.50;;
2019;SDS011;1014;51.960;8.542;2024-03-02T03:30:24;23.92;;;21.92;;
2019;SDS011;1014;51.960;8.542;2024-03-02T03:32:51;27.60;;;25.50;;
2019;SDS011;1014;51.960;8.542;2024-03-02T03:35:18;27.10;;;24.90;;
2019;SDS011;1014;51.960;8.542;2024-03-02T03:37:45;27.80;;;25.37;;
2019;SDS011;1014;51.960;8.542;2024-03-02T03:40:12;28.03;;;25.50;;
2019;SDS011;1014;51.960;8.542;2024-03-02T03:42:39;25.30;;;23.20;;
2019;SDS011;1014;51.960;8.542;2024-03-02T03:45:06;22.30;;;20.73;;
2019;SDS011;1014;51.960;8.542;2024-03-02T03:47:35;27.95;;;25.20;;
2019;SDS011;1014;51.960;8.542;2024-03-02T03:50:02;27.00;;;24.90;;
2019;SDS011;1014;51.960;8.542;2024-03-02T03:52:32;27.40;;;25.13;;
2019;SDS011;1014;51.960;8.542;2024-03-02T03:54:59;26.50;;;24.35;;
2019;SDS011;1014;51.960;8.542;2024-03-02T03:57:26;30.33;;;27.48;;
2019;SDS011;1014;51.960;8.542;2024-03-02T03:59:53;28.08;;;25.67;;
2019;SDS011;1014;51.960;8.542;2024-03-02T04:02:20;27.17;;;24.80;;
2019;SDS011;1014;51.960;8.542;2024-03-02T04:04:48;25.50;;;23.33;;
2019;SDS011;1014;51.960;8.542;2024-03-02T04:07:15;26.27;;;24.00;;
2019;SDS011;1014;51.960;8.542;2024-03-02T04:09:43;28.27;;;25.58;;
2019;SDS011;1014;51.960;8.542;2024-03-02T04:12:10;27.40;;;25.23;;
2019;SDS011;1014;51.960;8.542;2024-03-02T04:14:38;26.30;;;24.05;;
2019;SDS011;1014;51.960;8.542;2024-03-02T04:17:07;28.90;;;26.40;;
2019;SDS011;1014;51.960;8.542;2024-03-02T04:19:35;28.50;;;25.83;;
2019;SDS011;1014;51.960;8.542;2024-03-02T04:22:03;28.90;;;26.35;;
2019;SDS011;1014;51.960;8.542;2024-03-02T04:24:30;27.95;;;25.50;;
2019;SDS011;1014;51.960;8.542;2024-03-02T04:26:57;27.80;;;25.40;;
2019;SDS011;1014;51.960;8.542;2024-03-02T04:29:24;27.60;;;25.20;;
2019;SDS011;1014;51.960;8.542;2024-03-02T04:31:51;29.73;;;27.17;;
2019;SDS011;1014;51.960;8.542;2024-03-02T04:34:18;27.88;;;25.50;;
2019;SDS011;1014;51.960;8.542;2024-03-02T04:36:45;29.73;;;26.73;;
2019;SDS011;1014;51.960;8.542;2024-03-02T04:39:14;29.35;;;26.88;;
2019;SDS011;1014;51.960;8.542;2024-03-02T04:41:41;29.70;;;26.95;;
2019;SDS011;1014;51.960;8.542;2024-03-02T04:44:08;30.43;;;27.70;;
2019;SDS011;1014;51.960;8.542;2024-03-02T04:46:35;28.77;;;25.88;;
2019;SDS011;1014;51.960;8.542;2024-03-02T04:49:02;28.10;;;25.50;;
2019;SDS011;1014;51.960;8.542;2024-03-02T04:51:29;29.77;;;27.17;;
2019;SDS011;1014;51.960;8.542;2024-03-02T04:53:56;26.70;;;24.30;;
2019;SDS011;1014;51.960;8.542;2024-03-02T04:56:24;27.55;;;24.85;;
2019;SDS011;1014;51.960;8.542;2024-03-02T04:59:09;28.88;;;26.38;;
2019;SDS011;1014;51.960;8.542;2024-03-02T05:01:36;29.42;;;26.75;;
2019;SDS011;1014;51.960;8.542;2024-03-02T05:04:04;27.95;;;25.40;;
2019;SDS011;1014;51.960;8.542;2024-03-02T05:06:30;31.20;;;27.90;;
2019;SDS011;1014;51.960;8.542;2024-03-02T05:08:57;29.20;;;26.50;;
2019;SDS011;1014;51.960;8.542;2024-03-02T05:11:26;30.40;;;27.70;;
2019;SDS011;1014;51.960;8.542;2024-03-02T05:14:24;30.92;;;28.13;;
2019;SDS011;1014;51.960;8.542;2024-03-02T05:16:51;28.43;;;25.67;;
2019;SDS011;1014;51.960;8.542;2024-03-02T05:19:18;31.83;;;29.10;;
2019;SDS011;1014;51.960;8.542;2024-03-02T05:21:45;29.70;;;27.10;;
2019;SDS011;1014;51.960;8.542;2024-03-02T05:24:12;27.73;;;25.03;;
2019;SDS011;1014;51.960;8.542;2024-03-02T05:26:40;32.03;;;29.03;;
2019;SDS011;1014;51.960;8.542;2024-03-02T05:29:08;29.17;;;26.40;;
2019;SDS011;1014;51.960;8.542;2024-03-02T05:31:35;28.42;;;25.75;;
2019;SDS011;1014;51.960;8.542;2024-03-02T05:34:02;30.53;;;27.30;;
2019;SDS011;1014;51.960;8.542;2024-03-02T05:36:30;25.27;;;22.77;;
2019;SDS011;1014;51.960;8.542;2024-03-02T05:38:57;26.83;;;24.42;;
2019;SDS011;1014;51.960;8.542;2024-03-02T05:41:24;26.70;;;24.27;;
2019;SDS011;1014;51.960;8.542;2024-03-02T05:43:53;29.17;;;26.48;;
2019;SDS011;1014;51.960;8.542;2024-03-02T05:46:20;28.55;;;25.95;;
2019;SDS011;1014;51.960;8.542;2024-03-02T05:48:47;26.73;;;24.17;;
2019;SDS011;1014;51.960;8.542;2024-03-02T05:51:14;28.87;;;26.23;;
2019;SDS011;1014;51.960;8.542;2024-03-02T05:53:41;30.45;;;27.25;;
2019;SDS011;1014;51.960;8.542;2024-03-02T05:56:08;29.27;;;26.47;;
2019;SDS011;1014;51.960;8.542;2024-03-02T05:58:35;29.83;;;26.83;;
2019;SDS011;1014;51.960;8.542;2024-03-02T06:01:16;32.73;;;29.50;;
2019;SDS011;1014;51.960;8.542;2024-03-02T06:03:43;28.95;;;26.55;;
2019;SDS011;1014;51.960;8.542;2024-03-02T06:06:10;30.33;;;27.58;;
2019;SDS011;1014;51.960;8.542;2024-03-02T06:08:37;29.27;;;26.33;;
2019;SDS011;1014;51.960;8.542;2024-03-02T06:11:04;31.48;;;28.58;;
2019;SDS011;1014;51.960;8.542;2024-03-02T06:13:31;30.83;;;27.80;;
2019;SDS011;1014;51.960;8.542;2024-03-02T06:15:58;29.23;;;26.48;;
2019;SDS011;1014;51.960;8.542;2024-03-02T06:18:27;31.67;;;28.83;;
2019;SDS011;1014;51.960;8.542;2024-03-02T06:20:54;28.63;;;25.98;;
2019;SDS011;1014;51.960;8.542;2024-03-02T06:23:21;28.15;;;25.65;;
2019;SDS011;1014;51.960;8.542;2024-03-02T06:25:48;31.63;;;28.63;;
2019;SDS011;1014;51.960;8.542;2024-03-02T06:28:15;31.43;;;28.20;;
2019;SDS011;1014;51.960;8.542;2024-03-02T06:30:42;29.30;;;26.65;;
2019;SDS011;1014;51.960;8.542;2024-03-02T06:33:10;32.27;;;29.10;;
2019;SDS011;1014;51.960;8.542;2024-03-02T06:35:38;30.67;;;27.75;;
2019;SDS011;1014;51.960;8.542;2024-03-02T06:38:06;30.52;;;27.48;;
2019;SDS011;1014;51.960;8.542;2024-03-02T06:40:33;31.10;;;28.10;;
2019;SDS011;1014;51.960;8.542;2024-03-02T06:43:02;30.52;;;27.42;;
2019;SDS011;1014;51.960;8.542;2024-03-02T06:45:29;30.20;;;27.40;;
2019;SDS011;1014;51.960;8.542;2024-03-02T06:47:58;31.83;;;28.55;;
2019;SDS011;1014;51.960;8.542;2024-03-02T06:50:25;31.30;;;28.15;;
2019;SDS011;1014;51.960;8.542;2024-03-02T06:52:54;30.80;;;27.73;;
2019;SDS011;1014;51.960;8.542;2024-03-02T06:55:22;30.52;;;27.60;;
2019;SDS011;1014;51.960;8.542;2024-03-02T06:57:49;30.27;;;27.30;;
2019;SDS011;1014;51.960;8.542;2024-03-02T07:00:17;32.05;;;29.02;;
2019;SDS011;1014;51.960;8.542;2024-03-02T07:02:45;30.70;;;27.80;;
2019;SDS011;1014;51.960;8.542;2024-03-02T07:05:12;34.17;;;29.15;;
2019;SDS011;1014;51.960;8.542;2024-03-02T07:07:39;32.03;;;29.07;;
2019;SDS011;1014;51.960;8.542;2024-03-02T07:10:08;30.13;;;27.25;;
2019;SDS011;1014;51.960;8.542;2024-03-02T07:12:35;31.05;;;28.10;;
2019;SDS011;1014;51.960;8.542;2024-03-02T07:15:02;32.70;;;29.67;;
2019;SDS011;1014;51.960;8.542;2024-03-02T07:18:02;30.27;;;27.37;;
2019;SDS011;1014;51.960;8.542;2024-03-02T07:20:29;31.05;;;27.83;;
2019;SDS011;1014;51.960;8.542;2024-03-02T07:22:56;31.50;;;28.43;;
2019;SDS011;1014;51.960;8.542;2024-03-02T07:25:24;32.28;;;29.02;;
2019;SDS011;1014;51.960;8.542;2024-03-02T07:27:51;30.92;;;27.75;;
2019;SDS011;1014;51.960;8.542;2024-03-02T07:30:18;29.10;;;26.27;;
2019;SDS011;1014;51.960;8.542;2024-03-02T07:32:45;31.88;;;28.75;;
2019;SDS011;1014;51.960;8.542;2024-03-02T07:35:12;31.63;;;28.67;;
2019;SDS011;1014;51.960;8.542;2024-03-02T07:37:40;29.90;;;27.10;;
2019;SDS011;1014;51.960;8.542;2024-03-02T07:40:08;29.95;;;26.73;;
2019;SDS011;1014;51.960;8.542;2024-03-02T07:42:37;31.73;;;28.70;;
2019;SDS011;1014;51.960;8.542;2024-03-02T07:45:07;30.63;;;27.70;;
2019;SDS011;1014;51.960;8.542;2024-03-02T07:47:34;30.37;;;27.43;;
2019;SDS011;1014;51.960;8.542;2024-03-02T07:50:01;33.03;;;29.83;;
2019;SDS011;1014;51.960;8.542;2024-03-02T07:52:31;30.93;;;28.00;;
2019;SDS011;1014;51.960;8.542;2024-03-02T07:54:58;35.70;;;29.98;;
2019;SDS011;1014;51.960;8.542;2024-03-02T07:57:25;33.83;;;30.27;;
2019;SDS011;1014;51.960;8.542;2024-03-02T07:59:53;33.73;;;28.63;;
2019;SDS011;1014;51.960;8.542;2024-03-02T08:02:21;30.60;;;27.90;;
2019;SDS011;1014;51.960;8.542;2024-03-02T08:04:48;31.47;;;28.50;;
2019;SDS011;1014;51.960;8.542;2024-03-02T08:07:15;30.20;;;27.50;;
2019;SDS011;1014;51.960;8.542;2024-03-02T08:09:42;31.03;;;28.30;;
2019;SDS011;1014;51.960;8.542;2024-03-02T08:12:09;29.17;;;26.50;;
2019;SDS011;1014;51.960;8.542;2024-03-02T08:14:36;32.77;;;29.83;;
2019;SDS011;1014;51.960;8.542;2024-03-02T08:17:04;28.53;;;25.83;;
2019;SDS011;1014;51.960;8.542;2024-03-02T08:19:34;30.60;;;27.77;;
2019;SDS011;1014;51.960;8.542;2024-03-02T08:22:01;26.90;;;24.43;;
2019;SDS011;1014;51.960;8.542;2024-03-02T08:24:28;28.33;;;25.87;;
2019;SDS011;1014;51.960;8.542;2024-03-02T08:26:55;29.30;;;26.60;;
2019;SDS011;1014;51.960;8.542;2024-03-02T08:29:22;29.57;;;27.03;;
2019;SDS011;1014;51.960;8.542;2024-03-02T08:31:50;30.67;;;27.87;;
2019;SDS011;1014;51.960;8.542;2024-03-02T08:34:21;30.20;;;27.63;;
2019;SDS011;1014;51.960;8.542;2024-03-02T08:36:48;27.90;;;25.50;;
2019;SDS011;1014;51.960;8.542;2024-03-02T08:39:15;29.20;;;26.43;;
2019;SDS011;1014;51.960;8.542;2024-03-02T08:41:42;29.87;;;27.30;;
2019;SDS011;1014;51.960;8.542;2024-03-02T08:44:09;27.43;;;25.13;;
2019;SDS011;1014;51.960;8.542;2024-03-02T08:46:36;26.47;;;24.23;;
2019;SDS011;1014;51.960;8.542;2024-03-02T08:49:03;25.73;;;23.77;;
2019;SDS011;1014;51.960;8.542;2024-03-02T08:51:32;26.10;;;24.10;;
2019;SDS011;1014;51.960;8.542;2024-03-02T08:53:59;30.30;;;27.27;;
2019;SDS011;1014;51.960;8.542;2024-03-02T08:56:26;27.77;;;25.50;;
2019;SDS011;1014;51.960;8.542;2024-03-02T08:58:53;25.93;;;23.90;;
2019;SDS011;1014;51.960;8.542;2024-03-02T09:01:20;26.90;;;24.60;;
2019;SDS011;1014;51.960;8.542;2024-03-02T09:03:47;25.57;;;23.47;;
2019;SDS011;1014;51.960;8.542;2024-03-02T09:06:14;25.27;;;23.40;;
2019;SDS011;1014;51.960;8.542;2024-03-02T09:08:44;23.33;;;21.53;;
2019;SDS011;1014;51.960;8.542;2024-03-02T09:11:11;24.90;;;22.90;;
2019;SDS011;1014;51.960;8.542;2024-03-02T09:13:38;23.27;;;21.67;;
2019;SDS011;1014;51.960;8.542;2024-03-02T09:16:12;22.13;;;20.50;;
2019;SDS011;1014;51.960;8.542;2024-03-02T09:18:46;22.80;;;21.10;;
2019;SDS011;1014;51.960;8.542;2024-03-02T09:21:27;22.20;;;20.60;;
2019;SDS011;1014;51.960;8.542;2024-03-02T09:27:06;21.33;;;19.70;;
2019;SDS011;1014;51.960;8.542;2024-03-02T09:29:33;21.70;;;20.17;;
2019;SDS011;1014;51.960;8.542;2024-03-02T09:32:01;21.53;;;20.10;;
2019;SDS011;1014;51.960;8.542;2024-03-02T09:34:28;21.77;;;20.27;;
2019;SDS011;1014;51.960;8.542;2024-03-02T09:36:59;22.40;;;20.90;;
2019;SDS011;1014;51.960;8.542;2024-03-02T09:39:32;22.23;;;20.67;;
2019;SDS011;1014;51.960;8.542;2024-03-02T09:42:01;22.87;;;21.30;;
2019;SDS011;1014;51.960;8.542;2024-03-02T09:44:44;23.90;;;22.20;;
2019;SDS011;1014;51.960;8.542;2024-03-02T09:47:17;23.90;;;22.20;;
2019;SDS011;1014;51.960;8.542;2024-03-02T09:49:46;23.10;;;21.30;;
2019;SDS011;1014;51.960;8.542;2024-03-02T09:52:15;24.47;;;22.77;;
2019;SDS011;1014;51.960;8.542;2024-03-02T09:54:47;23.60;;;21.83;;
2019;SDS011;1014;51.960;8.542;2024-03-02T09:57:18;25.23;;;23.27;;
2019;SDS011;1014;51.960;8.542;2024-03-02T09:59:47;24.40;;;22.50;;
2019;SDS011;1014;51.960;8.542;2024-03-02T10:02:14;22.00;;;20.47;;
2019;SDS011;1014;51.960;8.542;2024-03-02T10:04:44;23.90;;;22.03;;
2019;SDS011;1014;51.960;8.542;2024-03-02T10:07:14;24.93;;;22.87;;
2019;SDS011;1014;51.960;8.542;2024-03-02T10:09:47;23.60;;;21.80;;
2019;SDS011;1014;51.960;8.542;2024-03-02T10:12:29;22.97;;;21.33;;
2019;SDS011;1014;51.960;8.542;2024-03-02T10:15:06;24.17;;;22.30;;
2019;SDS011;1014;51.960;8.542;2024-03-02T10:17:34;23.17;;;21.50;;
2019;SDS011;1014;51.960;8.542;2024-03-02T10:22:46;23.00;;;21.40;;
2019;SDS011;1014;51.960;8.542;2024-03-02T10:25:20;23.57;;;21.87;;
2019;SDS011;1014;51.960;8.542;2024-03-02T10:27:56;24.33;;;22.63;;
2019;SDS011;1014;51.960;8.542;2024-03-02T10:30:25;23.10;;;21.60;;
2019;SDS011;1014;51.960;8.542;2024-03-02T10:32:52;23.27;;;21.70;;
2019;SDS011;1014;51.960;8.542;2024-03-02T10:35:20;23.13;;;21.57;;
2019;SDS011;1014;51.960;8.542;2024-03-02T10:37:48;22.90;;;21.40;;
2019;SDS011;1014;51.960;8.542;2024-03-02T10:40:15;24.33;;;22.70;;
2019;SDS011;1014;51.960;8.542;2024-03-02T10:42:42;24.00;;;22.20;;
2019;SDS011;1014;51.960;8.542;2024-03-02T10:45:11;22.97;;;21.47;;
2019;SDS011;1014;51.960;8.542;2024-03-02T10:47:40;23.03;;;21.53;;
2019;SDS011;1014;51.960;8.542;2024-03-02T10:50:08;23.83;;;22.13;;
2019;SDS011;1014;51.960;8.542;2024-03-02T10:52:35;22.93;;;21.37;;
2019;SDS011;1014;51.960;8.542;2024-03-02T10:55:04;22.57;;;21.07;;
2019;SDS011;1014;51.960;8.542;2024-03-02T10:57:33;22.43;;;20.93;;
2019;SDS011;1014;51.960;8.542;2024-03-02T11:00:05;22.70;;;21.00;;
2019;SDS011;1014;51.960;8.542;2024-03-02T11:02:32;22.73;;;21.23;;
2019;SDS011;1014;51.960;8.542;2024-03-02T11:05:02;21.80;;;20.40;;
2019;SDS011;1014;51.960;8.542;2024-03-02T11:07:32;23.00;;;21.40;;
2019;SDS011;1014;51.960;8.542;2024-03-02T11:10:00;21.80;;;20.30;;
2019;SDS011;1014;51.960;8.542;2024-03-02T11:12:34;23.10;;;21.50;;
2019;SDS011;1014;51.960;8.542;2024-03-02T11:15:05;22.43;;;20.63;;
2019;SDS011;1014;51.960;8.542;2024-03-02T11:17:38;20.90;;;19.47;;
2019;SDS011;1014;51.960;8.542;2024-03-02T11:20:18;21.00;;;19.77;;
2019;SDS011;1014;51.960;8.542;2024-03-02T11:23:08;21.57;;;20.17;;
2019;SDS011;1014;51.960;8.542;2024-03-02T11:25:35;21.63;;;20.13;;
2019;SDS011;1014;51.960;8.542;2024-03-02T11:28:04;22.13;;;20.73;;
2019;SDS011;1014;51.960;8.542;2024-03-02T11:30:59;22.07;;;20.47;;
2019;SDS011;1014;51.960;8.542;2024-03-02T11:33:49;21.90;;;20.60;;
2019;SDS011;1014;51.960;8.542;2024-03-02T11:39:15;21.97;;;20.60;;
2019;SDS011;1014;51.960;8.542;2024-03-02T11:41:44;23.40;;;21.90;;
2019;SDS011;1014;51.960;8.542;2024-03-02T11:44:23;21.67;;;20.27;;
2019;SDS011;1014;51.960;8.542;2024-03-02T11:46:54;22.03;;;20.53;;
2019;SDS011;1014;51.960;8.542;2024-03-02T11:49:36;23.10;;;21.60;;
2019;SDS011;1014;51.960;8.542;2024-03-02T11:52:29;22.43;;;21.03;;
2019;SDS011;1014;51.960;8.542;2024-03-02T11:55:01;24.00;;;22.30;;
2019;SDS011;1014;51.960;8.542;2024-03-02T11:57:35;22.93;;;21.50;;
2019;SDS011;1014;51.960;8.542;2024-03-02T12:00:16;22.77;;;21.37;;
2019;SDS011;1014;51.960;8.542;2024-03-02T12:02:47;22.07;;;20.63;;
2019;SDS011;1014;51.960;8.542;2024-03-02T12:05:16;21.23;;;19.73;;
2019;SDS011;1014;51.960;8.542;2024-03-02T12:07:46;22.80;;;21.13;;
2019;SDS011;1014;51.960;8.542;2024-03-02T12:10:34;23.03;;;21.43;;
2019;SDS011;1014;51.960;8.542;2024-03-02T12:13:07;22.67;;;21.17;;
2019;SDS011;1014;51.960;8.542;2024-03-02T12:15:38;22.17;;;20.67;;
2019;SDS011;1014;51.960;8.542;2024-03-02T12:18:08;20.40;;;19.00;;
2019;SDS011;1014;51.960;8.542;2024-03-02T12:20:49;21.30;;;20.00;;
2019;SDS011;1014;51.960;8.542;2024-03-02T12:23:31;22.20;;;20.60;;
2019;SDS011;1014;51.960;8.542;2024-03-02T12:29:13;20.43;;;19.17;;
2019;SDS011;1014;51.960;8.542;2024-03-02T12:31:42;21.47;;;19.70;;
2019;SDS011;1014;51.960;8.542;2024-03-02T12:34:15;20.50;;;19.13;;
2019;SDS011;1014;51.960;8.542;2024-03-02T12:37:01;20.87;;;19.30;;
2019;SDS011;1014;51.960;8.542;2024-03-02T12:39:32;20.80;;;19.50;;
2019;SDS011;1014;51.960;8.542;2024-03-02T12:42:03;20.97;;;19.67;;
2019;SDS011;1014;51.960;8.542;2024-03-02T12:47:26;21.50;;;19.90;;
2019;SDS011;1014;51.960;8.542;2024-03-02T12:49:55;21.53;;;20.27;;
2019;SDS011;1014;51.960;8.542;2024-03-02T12:52:30;21.23;;;19.93;;
2019;SDS011;1014;51.960;8.542;2024-03-02T12:55:07;21.43;;;19.30;;
2019;SDS011;1014;51.960;8.542;2024-03-02T12:58:00;22.00;;;20.50;;
2019;SDS011;1014;51.960;8.542;2024-03-02T13:00:43;21.93;;;20.53;;
2019;SDS011;1014;51.960;8.542;2024-03-02T13:03:14;21.07;;;19.87;;
2019;SDS011;1014;51.960;8.542;2024-03-02T13:05:47;20.57;;;19.27;;
2019;SDS011;1014;51.960;8.542;2024-03-02T13:08:45;21.13;;;19.93;;
2019;SDS011;1014;51.960;8.542;2024-03-02T13:11:18;21.20;;;20.00;;
2019;SDS011;1014;51.960;8.542;2024-03-02T13:13:48;20.80;;;19.57;;
2019;SDS011;1014;51.960;8.542;2024-03-02T13:16:30;20.20;;;19.00;;
2019;SDS011;1014;51.960;8.542;2024-03-02T13:19:06;20.50;;;19.30;;
2019;SDS011;1014;51.960;8.542;2024-03-02T13:21:36;21.20;;;20.00;;
2019;SDS011;1014;51.960;8.542;2024-03-02T13:24:15;20.23;;;19.03;;
2019;SDS011;1014;51.960;8.542;2024-03-02T13:26:44;20.63;;;19.43;;
2019;SDS011;1014;51.960;8.542;2024-03-02T13:32:17;19.47;;;18.37;;
2019;SDS011;1014;51.960;8.542;2024-03-02T13:37:56;20.03;;;18.83;;
2019;SDS011;1014;51.960;8.542;2024-03-02T13:40:24;20.87;;;19.50;;
2019;SDS011;1014;51.960;8.542;2024-03-02T13:42:51;20.20;;;19.10;;
2019;SDS011;1014;51.960;8.542;2024-03-02T13:45:19;19.63;;;18.53;;
2019;SDS011;1014;51.960;8.542;2024-03-02T13:47:46;19.90;;;18.70;;
2019;SDS011;1014;51.960;8.542;2024-03-02T13:50:17;19.03;;;18.00;;
2019;SDS011;1014;51.960;8.542;2024-03-02T13:52:59;19.90;;;18.60;;
2019;SDS011;1014;51.960;8.542;2024-03-02T13:55:34;18.93;;;17.90;;
2019;SDS011;1014;51.960;8.542;2024-03-02T13:58:02;19.33;;;17.90;;
2019;SDS011;1014;51.960;8.542;2024-03-02T14:00:30;19.60;;;18.50;;
2019;SDS011;1014;51.960;8.542;2024-03-02T14:02:57;19.80;;;18.70;;
2019;SDS011;1014;51.960;8.542;2024-03-02T14:05:26;20.47;;;19.27;;
2019;SDS011;1014;51.960;8.542;2024-03-02T14:07:54;19.70;;;18.60;;
2019;SDS011;1014;51.960;8.542;2024-03-02T14:10:24;19.43;;;18.20;;
2019;SDS011;1014;51.960;8.542;2024-03-02T14:12:51;19.33;;;18.17;;
2019;SDS011;1014;51.960;8.542;2024-03-02T14:15:27;19.33;;;18.23;;
2019;SDS011;1014;51.960;8.542;2024-03-02T14:17:55;18.57;;;17.57;;
2019;SDS011;1014;51.960;8.542;2024-03-02T14:20:25;18.90;;;17.90;;
2019;SDS011;1014;51.960;8.542;2024-03-02T14:22:54;17.67;;;16.67;;
2019;SDS011;1014;51.960;8.542;2024-03-02T14:25:25;18.50;;;17.50;;
2019;SDS011;1014;51.960;8.542;2024-03-02T14:27:56;18.40;;;17.43;;
2019;SDS011;1014;51.960;8.542;2024-03-02T14:30:23;19.00;;;18.00;;
2019;SDS011;1014;51.960;8.542;2024-03-02T14:32:52;18.00;;;17.00;;
2019;SDS011;1014;51.960;8.542;2024-03-02T14:35:20;19.10;;;18.00;;
2019;SDS011;1014;51.960;8.542;2024-03-02T14:37:49;18.37;;;17.37;;
2019;SDS011;1014;51.960;8.542;2024-03-02T14:40:18;18.60;;;17.60;;
2019;SDS011;1014;51.960;8.542;2024-03-02T14:42:48;19.07;;;18.07;;
2019;SDS011;1014;51.960;8.542;2024-03-02T14:45:16;18.37;;;17.37;;
2019;SDS011;1014;51.960;8.542;2024-03-02T14:47:43;18.50;;;17.50;;
2019;SDS011;1014;51.960;8.542;2024-03-02T14:50:10;19.53;;;18.40;;
2019;SDS011;1014;51.960;8.542;2024-03-02T14:52:38;18.90;;;17.90;;
2019;SDS011;1014;51.960;8.542;2024-03-02T14:55:07;18.63;;;17.63;;
2019;SDS011;1014;51.960;8.542;2024-03-02T14:57:38;18.80;;;17.77;;
2019;SDS011;1014;51.960;8.542;2024-03-02T15:02:49;19.27;;;18.17;;
2019;SDS011;1014;51.960;8.542;2024-03-02T15:05:17;18.50;;;17.50;;
2019;SDS011;1014;51.960;8.542;2024-03-02T15:07:44;19.70;;;18.50;;
2019;SDS011;1014;51.960;8.542;2024-03-02T15:10:12;19.70;;;18.63;;
2019;SDS011;1014;51.960;8.542;2024-03-02T15:12:39;19.57;;;18.43;;
2019;SDS011;1014;51.960;8.542;2024-03-02T15:15:07;18.90;;;17.90;;
2019;SDS011;1014;51.960;8.542;2024-03-02T15:17:35;19.03;;;18.13;;
2019;SDS011;1014;51.960;8.542;2024-03-02T15:20:05;19.67;;;18.67;;
2019;SDS011;1014;51.960;8.542;2024-03-02T15:22:32;17.97;;;17.07;;
2019;SDS011;1014;51.960;8.542;2024-03-02T15:24:59;18.33;;;17.40;;